^^
Grace C. Lehan Memorial Weather Station Historical Data
Daily Summary for February 21, 2021 Units:  Both    English   Metric
Daily Weekly Monthly Yearly
  High: Low: Average:
Temperature: 75.2 °F /  24 °C 53.6 °F /  12 °C 64.3 °F /  17.9 °C
Dew Point: 65.3 °F /  18.5 °C 51.9 °F /  11.1 °C 58.6 °F /  14.8 °C
Humidity: 96% 62.8% 83%
Wind Speed: 1.3mph /  2.1km/h - 0mph /  0km/h
Wind Gust: 5mph /  8km/h - -
Wind- - ESE
Pressure: 30.37 in /  1028.3 hPa 30.24 in /  1023.9 hPa -
Precipitation: 0.00 in /  0 mm    
 
 
Tabular Data for February 21, 2021
Time Temperature Dew Point Pressure Wind Wind Speed Wind Gust Humidity Rainfall Rate (Hourly) solar
00:00 58.9 °F /  14.9 °C 55.4 °F /  13 °C 30.36in /  1028hPa Calm     88% 0.00in /  0mm 0 W/m2
00:09 58.7 °F /  14.8 °C 55.2 °F /  12.9 °C 30.36in /  1028hPa Calm     88% 0.00in /  0mm 0 W/m2
00:14 58.7 °F /  14.8 °C 55.3 °F /  12.9 °C 30.36in /  1028hPa Calm     88.4% 0.00in /  0mm 0 W/m2
00:19 58.5 °F /  14.7 °C 55.3 °F /  12.9 °C 30.36in /  1028hPa Calm     89% 0.00in /  0mm 0 W/m2
00:24 58.4 °F /  14.7 °C 55.2 °F /  12.9 °C 30.37in /  1028.3hPa Calm     89% 0.00in /  0mm 0 W/m2
00:29 58.2 °F /  14.6 °C 55 °F /  12.8 °C 30.36in /  1028hPa Calm     89% 0.00in /  0mm 0 W/m2
00:34 58.1 °F /  14.5 °C 54.9 °F /  12.7 °C 30.36in /  1028hPa Calm     89% 0.00in /  0mm 0 W/m2
00:39 58 °F /  14.4 °C 55 °F /  12.8 °C 30.36in /  1028hPa Calm     89.7% 0.00in /  0mm 0 W/m2
00:44 57.8 °F /  14.3 °C 54.9 °F /  12.7 °C 30.37in /  1028.3hPa Calm     90% 0.00in /  0mm 0 W/m2
00:49 57.7 °F /  14.3 °C 54.8 °F /  12.7 °C 30.37in /  1028.3hPa Calm     90% 0.00in /  0mm 0 W/m2
00:54 57.6 °F /  14.2 °C 54.7 °F /  12.6 °C 30.37in /  1028.3hPa Calm     90% 0.00in /  0mm 0 W/m2
00:59 57.5 °F /  14.2 °C 54.6 °F /  12.6 °C 30.37in /  1028.3hPa Calm     90% 0.00in /  0mm 0 W/m2
01:04 57.4 °F /  14.1 °C 54.6 °F /  12.6 °C 30.37in /  1028.3hPa Calm     90.2% 0.00in /  0mm 0 W/m2
01:09 57.3 °F /  14.1 °C 54.7 °F /  12.6 °C 30.37in /  1028.3hPa Calm     91% 0.00in /  0mm 0 W/m2
01:14 57.2 °F /  14 °C 54.6 °F /  12.6 °C 30.37in /  1028.3hPa Calm     91% 0.00in /  0mm 0 W/m2
01:19 57.3 °F /  14.1 °C 54.7 °F /  12.6 °C 30.37in /  1028.3hPa Calm     91% 0.00in /  0mm 0 W/m2
01:24 57.2 °F /  14 °C 54.6 °F /  12.6 °C 30.37in /  1028.3hPa Calm     91% 0.00in /  0mm 0 W/m2
01:29 57.2 °F /  14 °C 54.6 °F /  12.6 °C 30.37in /  1028.3hPa Calm     91% 0.00in /  0mm 0 W/m2
01:34 57.1 °F /  13.9 °C 54.5 °F /  12.5 °C 30.37in /  1028.3hPa Calm     91% 0.00in /  0mm 0 W/m2
01:39 57 °F /  13.9 °C 54.5 °F /  12.5 °C 30.37in /  1028.3hPa Calm     91.4% 0.00in /  0mm 0 W/m2
01:44 56.8 °F /  13.8 °C 54.5 °F /  12.5 °C 30.37in /  1028.3hPa Calm     92% 0.00in /  0mm 0 W/m2
01:49 56.7 °F /  13.7 °C 54.4 °F /  12.4 °C 30.37in /  1028.3hPa Calm     91.8% 0.00in /  0mm 0 W/m2
01:54 56.7 °F /  13.7 °C 54.4 °F /  12.4 °C 30.37in /  1028.3hPa Calm     92% 0.00in /  0mm 0 W/m2
01:58 56.6 °F /  13.7 °C 54.3 °F /  12.4 °C 30.36in /  1028hPa Calm     92% 0.00in /  0mm 0 W/m2
02:04 56.5 °F /  13.6 °C 54.2 °F /  12.3 °C 30.36in /  1028hPa Calm     92% 0.00in /  0mm 0 W/m2
02:09 56.4 °F /  13.6 °C 54.1 °F /  12.3 °C 30.36in /  1028hPa Calm     92% 0.00in /  0mm 0 W/m2
02:14 56.3 °F /  13.5 °C 54.1 °F /  12.3 °C 30.36in /  1028hPa Calm     92% 0.00in /  0mm 0 W/m2
02:19 56.3 °F /  13.5 °C 54 °F /  12.2 °C 30.36in /  1028hPa Calm     92% 0.00in /  0mm 0 W/m2
02:24 56.2 °F /  13.4 °C 53.9 °F /  12.2 °C 30.36in /  1028hPa Calm     92% 0.00in /  0mm 0 W/m2
02:29 56.1 °F /  13.4 °C 53.8 °F /  12.1 °C 30.36in /  1028hPa Calm     92% 0.00in /  0mm 0 W/m2
02:34 56 °F /  13.3 °C 53.7 °F /  12.1 °C 30.35in /  1027.7hPa Calm     92% 0.00in /  0mm 0 W/m2
02:39 55.9 °F /  13.3 °C 53.6 °F /  12 °C 30.35in /  1027.7hPa Calm     92% 0.00in /  0mm 0 W/m2
02:44 55.9 °F /  13.3 °C 53.6 °F /  12 °C 30.35in /  1027.7hPa Calm     92% 0.00in /  0mm 0 W/m2
02:49 55.8 °F /  13.2 °C 53.5 °F /  11.9 °C 30.35in /  1027.7hPa Calm     92% 0.00in /  0mm 0 W/m2
02:54 55.8 °F /  13.2 °C 53.7 °F /  12.1 °C 30.35in /  1027.7hPa Calm     92.7% 0.00in /  0mm 0 W/m2
02:59 55.7 °F /  13.2 °C 53.7 °F /  12.1 °C 30.35in /  1027.7hPa Calm     93% 0.00in /  0mm 0 W/m2
03:04 55.7 °F /  13.2 °C 53.7 °F /  12.1 °C 30.35in /  1027.7hPa Calm     93% 0.00in /  0mm 0 W/m2
03:09 55.6 °F /  13.1 °C 53.6 °F /  12 °C 30.35in /  1027.7hPa Calm     93% 0.00in /  0mm 0 W/m2
03:14 55.6 °F /  13.1 °C 53.6 °F /  12 °C 30.35in /  1027.7hPa Calm     93% 0.00in /  0mm 0 W/m2
03:19 55.5 °F /  13.1 °C 53.5 °F /  11.9 °C 30.35in /  1027.7hPa Calm     93% 0.00in /  0mm 0 W/m2
03:24 55.4 °F /  13 °C 53.4 °F /  11.9 °C 30.35in /  1027.7hPa Calm     93% 0.00in /  0mm 0 W/m2
03:29 55.3 °F /  12.9 °C 53.3 °F /  11.8 °C 30.35in /  1027.7hPa Calm     93% 0.00in /  0mm 0 W/m2
03:34 55.2 °F /  12.9 °C 53.2 °F /  11.8 °C 30.34in /  1027.3hPa Calm     93% 0.00in /  0mm 0 W/m2
03:39 55.1 °F /  12.8 °C 53.1 °F /  11.7 °C 30.35in /  1027.7hPa Calm     93% 0.00in /  0mm 0 W/m2
03:44 55.2 °F /  12.9 °C 53.2 °F /  11.8 °C 30.35in /  1027.7hPa Calm     93% 0.00in /  0mm 0 W/m2
03:49 55.2 °F /  12.9 °C 53.2 °F /  11.8 °C 30.35in /  1027.7hPa Calm     93% 0.00in /  0mm 0 W/m2
03:54 55.2 °F /  12.9 °C 53.2 °F /  11.8 °C 30.35in /  1027.7hPa Calm     93% 0.00in /  0mm 0 W/m2
03:59 55.1 °F /  12.8 °C 53.2 °F /  11.8 °C 30.35in /  1027.7hPa Calm     93% 0.00in /  0mm 0 W/m2
04:00 55.1 °F /  12.8 °C 53.1 °F /  11.7 °C 30.35in /  1027.7hPa Calm     93% 0.00in /  0mm 0 W/m2
04:09 55 °F /  12.8 °C 53 °F /  11.7 °C 30.35in /  1027.7hPa Calm     93% 0.00in /  0mm 0 W/m2
04:14 55 °F /  12.8 °C 53 °F /  11.7 °C 30.35in /  1027.7hPa Calm     93% 0.00in /  0mm 0 W/m2
04:19 54.9 °F /  12.7 °C 52.9 °F /  11.6 °C 30.34in /  1027.3hPa Calm     93% 0.00in /  0mm 0 W/m2
04:24 54.8 °F /  12.7 °C 52.8 °F /  11.6 °C 30.34in /  1027.3hPa Calm     93% 0.00in /  0mm 0 W/m2
04:29 54.8 °F /  12.7 °C 52.8 °F /  11.6 °C 30.34in /  1027.3hPa Calm     93% 0.00in /  0mm 0 W/m2
04:34 54.7 °F /  12.6 °C 52.8 °F /  11.6 °C 30.34in /  1027.3hPa Calm     93.4% 0.00in /  0mm 0 W/m2
04:39 54.6 °F /  12.6 °C 52.9 °F /  11.6 °C 30.34in /  1027.3hPa Calm     94% 0.00in /  0mm 0 W/m2
04:44 54.6 °F /  12.6 °C 52.7 °F /  11.5 °C 30.34in /  1027.3hPa Calm     93.3% 0.00in /  0mm 0 W/m2
04:49 54.5 °F /  12.5 °C 52.5 °F /  11.4 °C 30.34in /  1027.3hPa Calm   1mph /  1.6km/h 93% 0.00in /  0mm 0 W/m2
04:54 54.4 °F /  12.4 °C 52.4 °F /  11.3 °C 30.34in /  1027.3hPa Calm   1mph /  1.6km/h 93% 0.00in /  0mm 0 W/m2
04:59 54.4 °F /  12.4 °C 52.4 °F /  11.3 °C 30.34in /  1027.3hPa Calm   1mph /  1.6km/h 93.1% 0.00in /  0mm 0 W/m2
05:04 54.3 °F /  12.4 °C 52.6 °F /  11.4 °C 30.34in /  1027.3hPa Calm   1mph /  1.6km/h 94% 0.00in /  0mm 0 W/m2
05:09 54.2 °F /  12.3 °C 52.5 °F /  11.4 °C 30.34in /  1027.3hPa Calm     94% 0.00in /  0mm 0 W/m2
05:14 54.1 °F /  12.3 °C 52.5 °F /  11.4 °C 30.34in /  1027.3hPa Calm     94% 0.00in /  0mm 0 W/m2
05:19 54.1 °F /  12.3 °C 52.4 °F /  11.3 °C 30.34in /  1027.3hPa Calm     94% 0.00in /  0mm 0 W/m2
05:24 54 °F /  12.2 °C 52.3 °F /  11.3 °C 30.34in /  1027.3hPa Calm     94% 0.00in /  0mm 0 W/m2
05:29 54 °F /  12.2 °C 52.3 °F /  11.3 °C 30.34in /  1027.3hPa Calm     94% 0.00in /  0mm 0 W/m2
05:34 53.9 °F /  12.2 °C 52.3 °F /  11.3 °C 30.34in /  1027.3hPa Calm     94% 0.00in /  0mm 0 W/m2
05:39 53.9 °F /  12.2 °C 52.2 °F /  11.2 °C 30.34in /  1027.3hPa Calm     94% 0.00in /  0mm 0 W/m2
05:44 53.9 °F /  12.2 °C 52.2 °F /  11.2 °C 30.34in /  1027.3hPa Calm     94% 0.00in /  0mm 0 W/m2
05:49 53.8 °F /  12.1 °C 52.1 °F /  11.2 °C 30.34in /  1027.3hPa Calm     94% 0.00in /  0mm 0 W/m2
05:54 53.8 °F /  12.1 °C 52.1 °F /  11.2 °C 30.34in /  1027.3hPa Calm     94% 0.00in /  0mm 0 W/m2
05:59 53.7 °F /  12.1 °C 52 °F /  11.1 °C 30.34in /  1027.3hPa Calm     94% 0.00in /  0mm 0 W/m2
06:04 53.7 °F /  12.1 °C 52 °F /  11.1 °C 30.34in /  1027.3hPa Calm     94% 0.00in /  0mm 0 W/m2
06:09 53.7 °F /  12.1 °C 52 °F /  11.1 °C 30.34in /  1027.3hPa Calm     94% 0.00in /  0mm 0 W/m2
06:14 53.7 °F /  12.1 °C 52 °F /  11.1 °C 30.35in /  1027.7hPa Calm     94% 0.00in /  0mm 0 W/m2
06:19 53.7 °F /  12.1 °C 52 °F /  11.1 °C 30.35in /  1027.7hPa Calm     94% 0.00in /  0mm 0 W/m2
06:24 53.7 °F /  12.1 °C 52 °F /  11.1 °C 30.35in /  1027.7hPa Calm     94% 0.00in /  0mm 0 W/m2
06:29 53.7 °F /  12.1 °C 52 °F /  11.1 °C 30.35in /  1027.7hPa Calm     94% 0.00in /  0mm 0 W/m2
06:34 53.7 °F /  12.1 °C 52 °F /  11.1 °C 30.35in /  1027.7hPa Calm     94% 0.00in /  0mm 0 W/m2
06:39 53.6 °F /  12 °C 51.9 °F /  11.1 °C 30.35in /  1027.7hPa Calm     94% 0.00in /  0mm 0 W/m2
06:44 53.6 °F /  12 °C 51.9 °F /  11.1 °C 30.35in /  1027.7hPa Calm     94% 0.00in /  0mm 5 W/m2
06:49 53.6 °F /  12 °C 51.9 °F /  11.1 °C 30.35in /  1027.7hPa Calm     94% 0.00in /  0mm 7 W/m2
06:54 53.6 °F /  12 °C 51.9 °F /  11.1 °C 30.35in /  1027.7hPa Calm     94% 0.00in /  0mm 11 W/m2
06:59 53.6 °F /  12 °C 51.9 °F /  11.1 °C 30.35in /  1027.7hPa Calm     94% 0.00in /  0mm 12 W/m2
07:04 53.6 °F /  12 °C 52.2 °F /  11.2 °C 30.35in /  1027.7hPa Calm     94.8% 0.00in /  0mm 14 W/m2
07:09 53.7 °F /  12.1 °C 52.3 °F /  11.3 °C 30.36in /  1028hPa Calm     95% 0.00in /  0mm 16 W/m2
07:14 53.8 °F /  12.1 °C 52.4 °F /  11.3 °C 30.35in /  1027.7hPa Calm     95% 0.00in /  0mm 16 W/m2
07:19 53.9 °F /  12.2 °C 52.5 °F /  11.4 °C 30.35in /  1027.7hPa Calm     95% 0.00in /  0mm 18 W/m2
07:24 53.9 °F /  12.2 °C 52.5 °F /  11.4 °C 30.36in /  1028hPa Calm     95% 0.00in /  0mm 18 W/m2
07:29 54.1 °F /  12.3 °C 52.7 °F /  11.5 °C 30.36in /  1028hPa Calm   1mph /  1.6km/h 95% 0.00in /  0mm 19 W/m2
07:34 54.3 °F /  12.4 °C 52.9 °F /  11.6 °C 30.36in /  1028hPa Calm   1mph /  1.6km/h 95% 0.00in /  0mm 21 W/m2
07:39 54.5 °F /  12.5 °C 53.1 °F /  11.7 °C 30.36in /  1028hPa Calm     95% 0.00in /  0mm 21 W/m2
07:44 54.7 °F /  12.6 °C 53.3 °F /  11.8 °C 30.36in /  1028hPa Calm     95% 0.00in /  0mm 21 W/m2
07:49 54.9 °F /  12.7 °C 53.5 °F /  11.9 °C 30.36in /  1028hPa Calm     95% 0.00in /  0mm 21 W/m2
07:54 55 °F /  12.8 °C 53.6 °F /  12 °C 30.36in /  1028hPa Calm     95% 0.00in /  0mm 21 W/m2
07:59 55.2 °F /  12.9 °C 53.9 °F /  12.2 °C 30.36in /  1028hPa Calm     95.4% 0.00in /  0mm 21 W/m2
08:09 55.5 °F /  13.1 °C 54.1 °F /  12.3 °C 30.36in /  1028hPa Calm     95% 0.00in /  0mm 28 W/m2
08:14 55.6 °F /  13.1 °C 54.2 °F /  12.3 °C 30.36in /  1028hPa Calm     95% 0.00in /  0mm 28 W/m2
08:19 55.8 °F /  13.2 °C 54.4 °F /  12.4 °C 30.36in /  1028hPa Calm     95.2% 0.00in /  0mm 30 W/m2
08:24 56 °F /  13.3 °C 54.9 °F /  12.7 °C 30.36in /  1028hPa Calm     96% 0.00in /  0mm 33 W/m2
08:29 56.1 °F /  13.4 °C 54.8 °F /  12.7 °C 30.37in /  1028.3hPa Calm     95.4% 0.00in /  0mm 33 W/m2
08:34 56.3 °F /  13.5 °C 54.9 °F /  12.7 °C 30.37in /  1028.3hPa Calm     95% 0.00in /  0mm 39 W/m2
08:39 56.4 °F /  13.6 °C 55 °F /  12.8 °C 30.37in /  1028.3hPa Calm     95% 0.00in /  0mm 42 W/m2
08:44 56.6 °F /  13.7 °C 55.2 °F /  12.9 °C 30.37in /  1028.3hPa Calm     95% 0.00in /  0mm 53 W/m2
08:49 56.8 °F /  13.8 °C 55.4 °F /  13 °C 30.37in /  1028.3hPa Calm     95% 0.00in /  0mm 63 W/m2
08:54 57.1 °F /  13.9 °C 55.7 °F /  13.2 °C 30.37in /  1028.3hPa Calm     95% 0.00in /  0mm 241 W/m2
08:59 57.6 °F /  14.2 °C 56.1 °F /  13.4 °C 30.37in /  1028.3hPa Calm   1mph /  1.6km/h 95% 0.00in /  0mm 399 W/m2
09:04 58.2 °F /  14.6 °C 56.7 °F /  13.7 °C 30.36in /  1028hPa Calm   1mph /  1.6km/h 94.8% 0.00in /  0mm 413 W/m2
09:09 59.1 °F /  15.1 °C 57.4 °F /  14.1 °C 30.36in /  1028hPa ESE 0.5mph /  0.8km/h 4mph /  6.4km/h 94% 0.00in /  0mm 434 W/m2
09:14 60.4 °F /  15.8 °C 58.3 °F /  14.6 °C 30.36in /  1028hPa ENE 0.1mph /  0.2km/h 4mph /  6.4km/h 93% 0.00in /  0mm 459 W/m2
09:19 61.6 °F /  16.4 °C 58.5 °F /  14.7 °C 30.36in /  1028hPa Calm   4mph /  6.4km/h 89.5% 0.00in /  0mm 482 W/m2
09:24 62.6 °F /  17 °C 58.4 °F /  14.7 °C 30.37in /  1028.3hPa Calm   4mph /  6.4km/h 86.2% 0.00in /  0mm 501 W/m2
09:29 63.5 °F /  17.5 °C 58.4 °F /  14.7 °C 30.37in /  1028.3hPa ENE 0.1mph /  0.2km/h 4mph /  6.4km/h 83.4% 0.00in /  0mm 524 W/m2
09:34 64.6 °F /  18.1 °C 58.7 °F /  14.8 °C 30.37in /  1028.3hPa Calm   4mph /  6.4km/h 81.1% 0.00in /  0mm 541 W/m2
09:39 65.7 °F /  18.7 °C 59.4 °F /  15.2 °C 30.37in /  1028.3hPa Calm     80.2% 0.00in /  0mm 554 W/m2
09:44 66.8 °F /  19.3 °C 59.8 °F /  15.4 °C 30.37in /  1028.3hPa ENE 0.1mph /  0.2km/h 1mph /  1.6km/h 78.1% 0.00in /  0mm 568 W/m2
09:49 67.7 °F /  19.8 °C 59.9 °F /  15.5 °C 30.37in /  1028.3hPa Calm   1mph /  1.6km/h 76.2% 0.00in /  0mm 582 W/m2
09:54 68.4 °F /  20.2 °C 60.2 °F /  15.7 °C 30.36in /  1028hPa Calm   1mph /  1.6km/h 74.8% 0.00in /  0mm 596 W/m2
09:59 68.9 °F /  20.5 °C 59.4 °F /  15.2 °C 30.36in /  1028hPa ENE 0.1mph /  0.2km/h 2mph /  3.2km/h 71.7% 0.00in /  0mm 610 W/m2
10:04 69.5 °F /  20.8 °C 59.9 °F /  15.5 °C 30.36in /  1028hPa ENE 0.4mph /  0.6km/h 3mph /  4.8km/h 71.7% 0.00in /  0mm 619 W/m2
10:09 70.2 °F /  21.2 °C 60.2 °F /  15.7 °C 30.36in /  1028hPa Calm   3mph /  4.8km/h 70.7% 0.00in /  0mm 628 W/m2
10:14 70.8 °F /  21.6 °C 60.1 °F /  15.6 °C 30.36in /  1028hPa Calm   3mph /  4.8km/h 69% 0.00in /  0mm 636 W/m2
10:19 71.5 °F /  21.9 °C 60.1 °F /  15.6 °C 30.36in /  1028hPa ENE 0.1mph /  0.2km/h 3mph /  4.8km/h 67.3% 0.00in /  0mm 645 W/m2
10:24 71.8 °F /  22.1 °C 60.1 °F /  15.6 °C 30.36in /  1028hPa ENE 0.2mph /  0.3km/h 3mph /  4.8km/h 66.6% 0.00in /  0mm 657 W/m2
10:29 72 °F /  22.2 °C 60.3 °F /  15.7 °C 30.36in /  1028hPa ENE 0.4mph /  0.6km/h 3mph /  4.8km/h 66.7% 0.00in /  0mm 668 W/m2
10:34 72.4 °F /  22.4 °C 60 °F /  15.6 °C 30.36in /  1028hPa Calm   3mph /  4.8km/h 64.9% 0.00in /  0mm 671 W/m2
10:39 72.7 °F /  22.6 °C 59.9 °F /  15.5 °C 30.36in /  1028hPa Calm   1mph /  1.6km/h 64.2% 0.00in /  0mm 686 W/m2
10:44 73.1 °F /  22.8 °C 60.5 °F /  15.8 °C 30.36in /  1028hPa Calm   1mph /  1.6km/h 64.7% 0.00in /  0mm 691 W/m2
10:49 73.3 °F /  22.9 °C 60.4 °F /  15.8 °C 30.36in /  1028hPa East 0.2mph /  0.3km/h 3mph /  4.8km/h 64% 0.00in /  0mm 705 W/m2
10:54 73.6 °F /  23.1 °C 60.7 °F /  15.9 °C 30.36in /  1028hPa East 0.1mph /  0.2km/h 3mph /  4.8km/h 64% 0.00in /  0mm 721 W/m2
10:59 73.9 °F /  23.3 °C 61 °F /  16.1 °C 30.36in /  1028hPa East 0.1mph /  0.2km/h 3mph /  4.8km/h 64.2% 0.00in /  0mm 788 W/m2
11:04 74 °F /  23.3 °C 60.5 °F /  15.8 °C 30.36in /  1028hPa Calm   3mph /  4.8km/h 62.8% 0.00in /  0mm 788 W/m2
11:09 73.8 °F /  23.2 °C 60.5 °F /  15.8 °C 30.36in /  1028hPa Calm   1mph /  1.6km/h 63.1% 0.00in /  0mm 390 W/m2
11:14 73.7 °F /  23.2 °C 60.4 °F /  15.8 °C 30.36in /  1028hPa Calm   1mph /  1.6km/h 63.2% 0.00in /  0mm 390 W/m2
11:19 73.3 °F /  22.9 °C 60.4 °F /  15.8 °C 30.36in /  1028hPa East 0.2mph /  0.3km/h 3mph /  4.8km/h 63.9% 0.00in /  0mm 388 W/m2
11:24 72.9 °F /  22.7 °C 60.3 °F /  15.7 °C 30.36in /  1028hPa Calm   3mph /  4.8km/h 64.6% 0.00in /  0mm 380 W/m2
11:29 72.5 °F /  22.5 °C 60.1 °F /  15.6 °C 30.36in /  1028hPa Calm   3mph /  4.8km/h 65% 0.00in /  0mm 316 W/m2
11:34 72.1 °F /  22.3 °C 60.1 °F /  15.6 °C 30.36in /  1028hPa Calm   3mph /  4.8km/h 65.9% 0.00in /  0mm 394 W/m2
11:39 71.8 °F /  22.1 °C 60.5 °F /  15.8 °C 30.36in /  1028hPa ENE 0.4mph /  0.6km/h 3mph /  4.8km/h 67.5% 0.00in /  0mm 394 W/m2
11:44 71.6 °F /  22 °C 60.4 °F /  15.8 °C 30.36in /  1028hPa ENE 0.4mph /  0.6km/h 3mph /  4.8km/h 67.7% 0.00in /  0mm 283 W/m2
11:49 71.6 °F /  22 °C 60.8 °F /  16 °C 30.35in /  1027.7hPa ENE 0.2mph /  0.3km/h 3mph /  4.8km/h 68.7% 0.00in /  0mm 357 W/m2
11:54 71.7 °F /  22.1 °C 61.2 °F /  16.2 °C 30.36in /  1028hPa ENE 1.3mph /  2.1km/h 4mph /  6.4km/h 69.5% 0.00in /  0mm 279 W/m2
11:59 72 °F /  22.2 °C 61.6 °F /  16.4 °C 30.35in /  1027.7hPa Calm   4mph /  6.4km/h 69.7% 0.00in /  0mm 206 W/m2
12:00 72.1 °F /  22.3 °C 61 °F /  16.1 °C 30.35in /  1027.7hPa Calm   4mph /  6.4km/h 68% 0.00in /  0mm 206 W/m2
12:09 72.4 °F /  22.4 °C 61.1 °F /  16.2 °C 30.35in /  1027.7hPa Calm     67.8% 0.00in /  0mm 297 W/m2
12:14 72.4 °F /  22.4 °C 61.4 °F /  16.3 °C 30.35in /  1027.7hPa Calm     68.4% 0.00in /  0mm 251 W/m2
12:19 72.3 °F /  22.4 °C 61.2 °F /  16.2 °C 30.35in /  1027.7hPa Calm     68.1% 0.00in /  0mm 251 W/m2
12:24 72.1 °F /  22.3 °C 61.2 °F /  16.2 °C 30.35in /  1027.7hPa ENE 0.2mph /  0.3km/h 2mph /  3.2km/h 68.6% 0.00in /  0mm 171 W/m2
12:29 72 °F /  22.2 °C 61.1 °F /  16.2 °C 30.35in /  1027.7hPa Calm   2mph /  3.2km/h 68.6% 0.00in /  0mm 244 W/m2
12:34 71.9 °F /  22.2 °C 61.7 °F /  16.5 °C 30.34in /  1027.3hPa Calm   2mph /  3.2km/h 70.4% 0.00in /  0mm 279 W/m2
12:39 71.9 °F /  22.2 °C 61.9 °F /  16.6 °C 30.34in /  1027.3hPa East 0.3mph /  0.5km/h 5mph /  8km/h 71% 0.00in /  0mm 244 W/m2
12:44 71.7 °F /  22.1 °C 61.9 °F /  16.6 °C 30.34in /  1027.3hPa Calm   5mph /  8km/h 71.1% 0.00in /  0mm 285 W/m2
12:49 71.8 °F /  22.1 °C 62.2 °F /  16.8 °C 30.34in /  1027.3hPa ESE 0.1mph /  0.2km/h 5mph /  8km/h 71.9% 0.00in /  0mm 185 W/m2
12:54 72.2 °F /  22.3 °C 62.9 °F /  17.2 °C 30.34in /  1027.3hPa SSE 0.3mph /  0.5km/h 5mph /  8km/h 72.5% 0.00in /  0mm 209 W/m2
12:59 72.9 °F /  22.7 °C 63.4 °F /  17.4 °C 30.33in /  1027hPa Calm   5mph /  8km/h 72.1% 0.00in /  0mm 297 W/m2
13:04 73.4 °F /  23 °C 63.2 °F /  17.3 °C 30.33in /  1027hPa South 0.1mph /  0.2km/h 5mph /  8km/h 70.6% 0.00in /  0mm 248 W/m2
13:09 73.6 °F /  23.1 °C 62.9 °F /  17.2 °C 30.33in /  1027hPa Calm   2mph /  3.2km/h 69.2% 0.00in /  0mm 225 W/m2
13:14 73.6 °F /  23.1 °C 63 °F /  17.2 °C 30.33in /  1027hPa Calm   2mph /  3.2km/h 69.6% 0.00in /  0mm 244 W/m2
13:19 73.6 °F /  23.1 °C 63.1 °F /  17.3 °C 30.33in /  1027hPa Calm   2mph /  3.2km/h 69.8% 0.00in /  0mm 218 W/m2
13:24 73.7 °F /  23.2 °C 63.3 °F /  17.4 °C 30.33in /  1027hPa Calm   2mph /  3.2km/h 70% 0.00in /  0mm 227 W/m2
13:29 73.7 °F /  23.2 °C 63.2 °F /  17.3 °C 30.33in /  1027hPa Calm   2mph /  3.2km/h 69.7% 0.00in /  0mm 230 W/m2
13:34 73.6 °F /  23.1 °C 63.2 °F /  17.3 °C 30.32in /  1026.6hPa Calm   2mph /  3.2km/h 69.9% 0.00in /  0mm 260 W/m2
13:39 73.7 °F /  23.2 °C 63.3 °F /  17.4 °C 30.32in /  1026.6hPa SE 0.3mph /  0.5km/h 5mph /  8km/h 70% 0.00in /  0mm 216 W/m2
13:44 73.5 °F /  23.1 °C 63.4 °F /  17.4 °C 30.32in /  1026.6hPa Calm   5mph /  8km/h 70.6% 0.00in /  0mm 285 W/m2
13:49 73.6 °F /  23.1 °C 64.2 °F /  17.9 °C 30.31in /  1026.3hPa Calm   5mph /  8km/h 72.4% 0.00in /  0mm 285 W/m2
13:54 73.8 °F /  23.2 °C 63.9 °F /  17.7 °C 30.31in /  1026.3hPa South 0.4mph /  0.6km/h 5mph /  8km/h 71.2% 0.00in /  0mm 151 W/m2
13:59 73.9 °F /  23.3 °C 64 °F /  17.8 °C 30.31in /  1026.3hPa East 0.1mph /  0.2km/h 5mph /  8km/h 71.1% 0.00in /  0mm 183 W/m2
14:04 73.9 °F /  23.3 °C 64.1 °F /  17.8 °C 30.31in /  1026.3hPa East 0.1mph /  0.2km/h 5mph /  8km/h 71.4% 0.00in /  0mm 204 W/m2
14:09 74.1 °F /  23.4 °C 64.2 °F /  17.9 °C 30.31in /  1026.3hPa Calm   1mph /  1.6km/h 71.3% 0.00in /  0mm 248 W/m2
14:14 74.4 °F /  23.6 °C 64 °F /  17.8 °C 30.31in /  1026.3hPa Calm   1mph /  1.6km/h 70.1% 0.00in /  0mm 251 W/m2
14:19 74.5 °F /  23.6 °C 63.9 °F /  17.7 °C 30.31in /  1026.3hPa ESE 0.1mph /  0.2km/h 2mph /  3.2km/h 69.5% 0.00in /  0mm 214 W/m2
14:24 74.4 °F /  23.6 °C 64 °F /  17.8 °C 30.31in /  1026.3hPa Calm   2mph /  3.2km/h 70.1% 0.00in /  0mm 214 W/m2
14:29 74.4 °F /  23.6 °C 64.3 °F /  17.9 °C 30.31in /  1026.3hPa Calm   2mph /  3.2km/h 70.8% 0.00in /  0mm 207 W/m2
14:34 74.4 °F /  23.6 °C 64.3 °F /  17.9 °C 30.31in /  1026.3hPa Calm   2mph /  3.2km/h 70.7% 0.00in /  0mm 207 W/m2
14:39 74.5 °F /  23.6 °C 64.1 °F /  17.8 °C 30.30in /  1026hPa Calm   2mph /  3.2km/h 70.2% 0.00in /  0mm 206 W/m2
14:43 74.5 °F /  23.6 °C 63.8 °F /  17.7 °C 30.30in /  1026hPa Calm   2mph /  3.2km/h 69.3% 0.00in /  0mm 174 W/m2
15:00 74.4 °F /  23.6 °C 64.4 °F /  18 °C 30.30in /  1026hPa Calm   3mph /  4.8km/h 71% 0.00in /  0mm 161 W/m2
15:30 74.9 °F /  23.8 °C 65.3 °F /  18.5 °C 30.28in /  1025.3hPa Calm   3mph /  4.8km/h 72% 0.00in /  0mm 154 W/m2
16:04 74.7 °F /  23.7 °C 65.1 °F /  18.4 °C 30.28in /  1025.3hPa Calm   3mph /  4.8km/h 72% 0.00in /  0mm 174 W/m2
16:09 74.8 °F /  23.8 °C 65.3 °F /  18.5 °C 30.28in /  1025.3hPa SE 0.2mph /  0.3km/h 3mph /  4.8km/h 72.3% 0.00in /  0mm 181 W/m2
16:14 75 °F /  23.9 °C 65.3 °F /  18.5 °C 30.28in /  1025.3hPa East 0.5mph /  0.8km/h 4mph /  6.4km/h 71.9% 0.00in /  0mm 146 W/m2
16:19 75.1 °F /  23.9 °C 65.2 °F /  18.4 °C 30.28in /  1025.3hPa South 0.6mph /  1km/h 4mph /  6.4km/h 71.4% 0.00in /  0mm 128 W/m2
16:24 75.2 °F /  24 °C 65.2 °F /  18.4 °C 30.28in /  1025.3hPa ESE 0.7mph /  1.1km/h 4mph /  6.4km/h 71.2% 0.00in /  0mm 95 W/m2
16:29 75.1 °F /  23.9 °C 65.2 °F /  18.4 °C 30.28in /  1025.3hPa Calm   4mph /  6.4km/h 71.2% 0.00in /  0mm 67 W/m2
16:34 75 °F /  23.9 °C 65.1 °F /  18.4 °C 30.28in /  1025.3hPa ESE 0.1mph /  0.2km/h 4mph /  6.4km/h 71.4% 0.00in /  0mm 90 W/m2
16:39 74.8 °F /  23.8 °C 65 °F /  18.3 °C 30.28in /  1025.3hPa ESE 0.2mph /  0.3km/h 3mph /  4.8km/h 71.5% 0.00in /  0mm 90 W/m2
16:44 74.7 °F /  23.7 °C 64.5 °F /  18.1 °C 30.28in /  1025.3hPa Calm   3mph /  4.8km/h 70.5% 0.00in /  0mm 77 W/m2
16:49 74.7 °F /  23.7 °C 64.4 °F /  18 °C 30.28in /  1025.3hPa ESE 0.3mph /  0.5km/h 3mph /  4.8km/h 70.4% 0.00in /  0mm 53 W/m2
16:54 74.7 °F /  23.7 °C 64.4 °F /  18 °C 30.28in /  1025.3hPa Calm   3mph /  4.8km/h 70.4% 0.00in /  0mm 79 W/m2
16:59 74.6 °F /  23.7 °C 64.6 °F /  18.1 °C 30.28in /  1025.3hPa SSE 0.1mph /  0.2km/h 3mph /  4.8km/h 71% 0.00in /  0mm 83 W/m2
17:04 74.6 °F /  23.7 °C 64.7 °F /  18.2 °C 30.27in /  1024.9hPa South 0.5mph /  0.8km/h 4mph /  6.4km/h 71.3% 0.00in /  0mm 100 W/m2
17:09 74.5 °F /  23.6 °C 64.7 °F /  18.2 °C 30.28in /  1025.3hPa Calm   4mph /  6.4km/h 71.4% 0.00in /  0mm 65 W/m2
17:14 74.4 °F /  23.6 °C 64.9 °F /  18.3 °C 30.27in /  1024.9hPa Calm   4mph /  6.4km/h 72.3% 0.00in /  0mm 51 W/m2
17:19 74.3 °F /  23.5 °C 64.7 °F /  18.2 °C 30.28in /  1025.3hPa Calm   4mph /  6.4km/h 72.2% 0.00in /  0mm 42 W/m2
17:24 74.1 °F /  23.4 °C 64.9 °F /  18.3 °C 30.28in /  1025.3hPa Calm   4mph /  6.4km/h 72.9% 0.00in /  0mm 37 W/m2
17:28 74 °F /  23.3 °C 64.8 °F /  18.2 °C 30.27in /  1024.9hPa Calm   4mph /  6.4km/h 73% 0.00in /  0mm 49 W/m2
17:34 73.8 °F /  23.2 °C 64.4 °F /  18 °C 30.27in /  1024.9hPa Calm   4mph /  6.4km/h 72.4% 0.00in /  0mm 76 W/m2
17:39 73.8 °F /  23.2 °C 64.5 °F /  18.1 °C 30.27in /  1024.9hPa Calm   1mph /  1.6km/h 72.7% 0.00in /  0mm 54 W/m2
17:44 73.7 °F /  23.2 °C 63.7 °F /  17.6 °C 30.27in /  1024.9hPa Calm   2mph /  3.2km/h 71% 0.00in /  0mm 33 W/m2
17:49 73.5 °F /  23.1 °C 63.2 °F /  17.3 °C 30.28in /  1025.3hPa ESE 0.1mph /  0.2km/h 2mph /  3.2km/h 70.3% 0.00in /  0mm 14 W/m2
17:54 73.3 °F /  22.9 °C 63.2 °F /  17.3 °C 30.28in /  1025.3hPa Calm   2mph /  3.2km/h 70.7% 0.00in /  0mm 11 W/m2
17:59 73.1 °F /  22.8 °C 63.1 °F /  17.3 °C 30.28in /  1025.3hPa Calm   2mph /  3.2km/h 71% 0.00in /  0mm 11 W/m2
18:04 72.8 °F /  22.7 °C 63.1 °F /  17.3 °C 30.27in /  1024.9hPa Calm   2mph /  3.2km/h 71.4% 0.00in /  0mm 11 W/m2
18:09 72.6 °F /  22.6 °C 63.2 °F /  17.3 °C 30.27in /  1024.9hPa Calm     72.2% 0.00in /  0mm 11 W/m2
18:14 72.3 °F /  22.4 °C 63.2 °F /  17.3 °C 30.27in /  1024.9hPa Calm     73% 0.00in /  0mm 11 W/m2
18:19 72.1 °F /  22.3 °C 63 °F /  17.2 °C 30.27in /  1024.9hPa Calm     73.1% 0.00in /  0mm 9 W/m2
18:24 71.8 °F /  22.1 °C 62.7 °F /  17.1 °C 30.27in /  1024.9hPa Calm   1mph /  1.6km/h 73% 0.00in /  0mm 9 W/m2
18:29 71.5 °F /  21.9 °C 62.8 °F /  17.1 °C 30.27in /  1024.9hPa Calm   1mph /  1.6km/h 73.8% 0.00in /  0mm 7 W/m2
18:34 71.3 °F /  21.8 °C 62.6 °F /  17 °C 30.27in /  1024.9hPa Calm   2mph /  3.2km/h 74% 0.00in /  0mm 5 W/m2
18:39 71.1 °F /  21.7 °C 62.4 °F /  16.9 °C 30.27in /  1024.9hPa Calm   2mph /  3.2km/h 74% 0.00in /  0mm 0 W/m2
18:44 70.9 °F /  21.6 °C 62.2 °F /  16.8 °C 30.27in /  1024.9hPa Calm   2mph /  3.2km/h 74% 0.00in /  0mm 0 W/m2
18:49 70.7 °F /  21.5 °C 62.1 °F /  16.7 °C 30.27in /  1024.9hPa Calm   2mph /  3.2km/h 74.2% 0.00in /  0mm 0 W/m2
18:54 70.6 °F /  21.4 °C 61.9 °F /  16.6 °C 30.27in /  1024.9hPa Calm   2mph /  3.2km/h 74% 0.00in /  0mm 0 W/m2
18:59 70.4 °F /  21.3 °C 61.7 °F /  16.5 °C 30.27in /  1024.9hPa Calm   2mph /  3.2km/h 74% 0.00in /  0mm 0 W/m2
19:04 70.2 °F /  21.2 °C 61.9 °F /  16.6 °C 30.27in /  1024.9hPa Calm   2mph /  3.2km/h 75% 0.00in /  0mm 0 W/m2
19:09 70.1 °F /  21.2 °C 61.8 °F /  16.6 °C 30.27in /  1024.9hPa Calm     75% 0.00in /  0mm 0 W/m2
19:14 69.9 °F /  21.1 °C 61.6 °F /  16.4 °C 30.27in /  1024.9hPa Calm     75% 0.00in /  0mm 0 W/m2
19:19 69.7 °F /  20.9 °C 61.7 °F /  16.5 °C 30.27in /  1024.9hPa Calm     75.6% 0.00in /  0mm 0 W/m2
19:24 69.6 °F /  20.9 °C 61.7 °F /  16.5 °C 30.26in /  1024.6hPa Calm     76% 0.00in /  0mm 0 W/m2
19:29 69.4 °F /  20.8 °C 61.7 °F /  16.5 °C 30.27in /  1024.9hPa Calm     76.5% 0.00in /  0mm 0 W/m2
19:34 69.3 °F /  20.7 °C 61.8 °F /  16.6 °C 30.27in /  1024.9hPa Calm     77% 0.00in /  0mm 0 W/m2
19:39 69.1 °F /  20.6 °C 61.6 °F /  16.4 °C 30.27in /  1024.9hPa Calm     77% 0.00in /  0mm 0 W/m2
19:44 68.9 °F /  20.5 °C 61.8 °F /  16.6 °C 30.27in /  1024.9hPa Calm     78% 0.00in /  0mm 0 W/m2
19:49 68.8 °F /  20.4 °C 61.6 °F /  16.4 °C 30.27in /  1024.9hPa Calm     78% 0.00in /  0mm 0 W/m2
19:54 68.6 °F /  20.3 °C 61.5 °F /  16.4 °C 30.27in /  1024.9hPa Calm     78% 0.00in /  0mm 0 W/m2
19:59 68.5 °F /  20.3 °C 61.6 °F /  16.4 °C 30.27in /  1024.9hPa Calm     78.7% 0.00in /  0mm 0 W/m2
20:09 68.2 °F /  20.1 °C 61.5 °F /  16.4 °C 30.26in /  1024.6hPa Calm     79.1% 0.00in /  0mm 0 W/m2
20:14 68 °F /  20 °C 61.6 °F /  16.4 °C 30.27in /  1024.9hPa Calm     80% 0.00in /  0mm 0 W/m2
20:19 67.9 °F /  19.9 °C 61.5 °F /  16.4 °C 30.27in /  1024.9hPa Calm     80% 0.00in /  0mm 0 W/m2
20:24 67.7 °F /  19.8 °C 61.3 °F /  16.3 °C 30.27in /  1024.9hPa Calm     80% 0.00in /  0mm 0 W/m2
20:29 67.5 °F /  19.7 °C 61.2 °F /  16.2 °C 30.27in /  1024.9hPa Calm     80.1% 0.00in /  0mm 0 W/m2
20:34 67.4 °F /  19.7 °C 61.3 °F /  16.3 °C 30.27in /  1024.9hPa Calm     81% 0.00in /  0mm 0 W/m2
20:39 67.2 °F /  19.6 °C 61.3 °F /  16.3 °C 30.27in /  1024.9hPa Calm     81.2% 0.00in /  0mm 0 W/m2
20:44 67.1 °F /  19.5 °C 61.4 °F /  16.3 °C 30.27in /  1024.9hPa Calm     82% 0.00in /  0mm 0 W/m2
20:49 66.9 °F /  19.4 °C 61.2 °F /  16.2 °C 30.27in /  1024.9hPa Calm     82% 0.00in /  0mm 0 W/m2
20:54 66.7 °F /  19.3 °C 61.4 °F /  16.3 °C 30.27in /  1024.9hPa Calm     83% 0.00in /  0mm 0 W/m2
20:59 66.5 °F /  19.2 °C 61.2 °F /  16.2 °C 30.27in /  1024.9hPa Calm     83% 0.00in /  0mm 0 W/m2
21:04 66.4 °F /  19.1 °C 61.3 °F /  16.3 °C 30.27in /  1024.9hPa Calm     83.7% 0.00in /  0mm 0 W/m2
21:09 66.2 °F /  19 °C 61.3 °F /  16.3 °C 30.27in /  1024.9hPa Calm     84% 0.00in /  0mm 0 W/m2
21:14 66.1 °F /  18.9 °C 61.1 °F /  16.2 °C 30.27in /  1024.9hPa Calm     84% 0.00in /  0mm 0 W/m2
21:19 65.9 °F /  18.8 °C 61 °F /  16.1 °C 30.26in /  1024.6hPa Calm     84% 0.00in /  0mm 0 W/m2
21:24 65.8 °F /  18.8 °C 61.1 °F /  16.2 °C 30.26in /  1024.6hPa Calm     84.8% 0.00in /  0mm 0 W/m2
21:29 65.8 °F /  18.8 °C 61.1 °F /  16.2 °C 30.26in /  1024.6hPa Calm     85% 0.00in /  0mm 0 W/m2
21:34 65.7 °F /  18.7 °C 61.2 °F /  16.2 °C 30.26in /  1024.6hPa Calm     85.6% 0.00in /  0mm 0 W/m2
21:39 65.5 °F /  18.6 °C 61.3 °F /  16.3 °C 30.26in /  1024.6hPa Calm     86% 0.00in /  0mm 0 W/m2
21:44 65.4 °F /  18.6 °C 61.1 °F /  16.2 °C 30.26in /  1024.6hPa Calm     86% 0.00in /  0mm 0 W/m2
21:49 65.3 °F /  18.5 °C 61 °F /  16.1 °C 30.26in /  1024.6hPa Calm     86% 0.00in /  0mm 0 W/m2
21:54 65.1 °F /  18.4 °C 61.1 °F /  16.2 °C 30.26in /  1024.6hPa Calm     86.6% 0.00in /  0mm 0 W/m2
21:59 65 °F /  18.3 °C 61 °F /  16.1 °C 30.25in /  1024.3hPa Calm     87% 0.00in /  0mm 0 W/m2
22:04 64.8 °F /  18.2 °C 60.9 °F /  16.1 °C 30.25in /  1024.3hPa Calm     87% 0.00in /  0mm 0 W/m2
22:09 64.7 °F /  18.2 °C 60.7 °F /  15.9 °C 30.26in /  1024.6hPa Calm     87% 0.00in /  0mm 0 W/m2
22:14 64.6 °F /  18.1 °C 60.7 °F /  15.9 °C 30.25in /  1024.3hPa Calm     87.2% 0.00in /  0mm 0 W/m2
22:19 64.5 °F /  18.1 °C 60.8 °F /  16 °C 30.26in /  1024.6hPa Calm     88% 0.00in /  0mm 0 W/m2
22:24 64.3 °F /  17.9 °C 60.7 °F /  15.9 °C 30.26in /  1024.6hPa Calm   1mph /  1.6km/h 88% 0.00in /  0mm 0 W/m2
22:29 64.2 °F /  17.9 °C 60.5 °F /  15.8 °C 30.26in /  1024.6hPa Calm   1mph /  1.6km/h 88% 0.00in /  0mm 0 W/m2
22:34 64 °F /  17.8 °C 60.7 °F /  15.9 °C 30.25in /  1024.3hPa Calm   1mph /  1.6km/h 88.9% 0.00in /  0mm 0 W/m2
22:39 63.9 °F /  17.7 °C 60.6 °F /  15.9 °C 30.25in /  1024.3hPa Calm     89% 0.00in /  0mm 0 W/m2
22:44 63.8 °F /  17.7 °C 60.5 °F /  15.8 °C 30.25in /  1024.3hPa Calm     89% 0.00in /  0mm 0 W/m2
22:49 63.8 °F /  17.7 °C 60.5 °F /  15.8 °C 30.25in /  1024.3hPa Calm     89% 0.00in /  0mm 0 W/m2
22:54 63.8 °F /  17.7 °C 60.7 °F /  15.9 °C 30.25in /  1024.3hPa Calm     89.7% 0.00in /  0mm 0 W/m2
22:59 63.8 °F /  17.7 °C 60.8 °F /  16 °C 30.25in /  1024.3hPa Calm     90% 0.00in /  0mm 0 W/m2
23:04 63.8 °F /  17.7 °C 60.8 °F /  16 °C 30.25in /  1024.3hPa Calm     90% 0.00in /  0mm 0 W/m2
23:09 63.8 °F /  17.7 °C 60.8 °F /  16 °C 30.25in /  1024.3hPa Calm     90% 0.00in /  0mm 0 W/m2
23:14 63.8 °F /  17.7 °C 60.8 °F /  16 °C 30.25in /  1024.3hPa Calm     90% 0.00in /  0mm 0 W/m2
23:19 63.8 °F /  17.7 °C 60.8 °F /  16 °C 30.24in /  1023.9hPa Calm     90% 0.00in /  0mm 0 W/m2
23:24 63.9 °F /  17.7 °C 61.1 °F /  16.2 °C 30.24in /  1023.9hPa Calm     90.7% 0.00in /  0mm 0 W/m2
23:29 63.9 °F /  17.7 °C 61.2 °F /  16.2 °C 30.24in /  1023.9hPa Calm     91% 0.00in /  0mm 0 W/m2
23:34 63.9 °F /  17.7 °C 61.2 °F /  16.2 °C 30.24in /  1023.9hPa Calm     91% 0.00in /  0mm 0 W/m2
23:39 63.9 °F /  17.7 °C 61.2 °F /  16.2 °C 30.24in /  1023.9hPa Calm     91% 0.00in /  0mm 0 W/m2
23:44 64 °F /  17.8 °C 61.3 °F /  16.3 °C 30.24in /  1023.9hPa Calm     91% 0.00in /  0mm 0 W/m2
23:49 64.1 °F /  17.8 °C 61.4 °F /  16.3 °C 30.24in /  1023.9hPa Calm     91% 0.00in /  0mm 0 W/m2
23:54 64.2 °F /  17.9 °C 61.5 °F /  16.4 °C 30.24in /  1023.9hPa Calm     91% 0.00in /  0mm 0 W/m2
23:59 64.2 °F /  17.9 °C 61.6 °F /  16.4 °C 30.24in /  1023.9hPa Calm     91% 0.00in /  0mm 0 W/m2
Hartford County Weather
Compliments of Weather Underground - 4 mb